This is the latest recevied weather packets stored in our database for station/object N5PRN. If no packets are shown the sender has not sent any weather packets the latest 10 day(s).
| Time | Temp. | Humidity | Pressure | Rain* | Wind** | Luminosity | Snow |
|---|---|---|---|---|---|---|---|
| 1777741464 | 21.11° C | 52% | 1020 hPa | 0 mm | - | 840 W/m² | - |
| 1777741160 | 21.11° C | 50% | 1020 hPa | 0 mm | - | 855 W/m² | - |
| 1777740858 | 21.11° C | 55% | 1020.3 hPa | 0 mm | - | 848 W/m² | - |
| 1777740554 | 21.67° C | 58% | 1020 hPa | 0 mm | - | 829 W/m² | - |
| 1777740245 | 20.56° C | 53% | 1020.2 hPa | 0 mm | - | 829 W/m² | - |
| 1777739942 | 20.56° C | 54% | 1020.2 hPa | 0 mm | - | 837 W/m² | - |
| 1777739638 | 20.56° C | 56% | 1020 hPa | 0 mm | - | 849 W/m² | - |
| 1777739336 | 20° C | 55% | 1020 hPa | 0 mm | - | 855 W/m² | - |
| 1777739032 | 19.44° C | 60% | 1019.9 hPa | 0 mm | - | 823 W/m² | - |
| 1777738729 | 18.89° C | 60% | 1020 hPa | 0 mm | - | 801 W/m² | - |
| 1777738425 | 16.11° C | 75% | 1020 hPa | 0 mm | - | 795 W/m² | - |
| 1777738124 | 14.44° C | 99% | 1019.9 hPa | 0 mm | - | 842 W/m² | - |
| 1777737822 | 13.89° C | 99% | 1019.9 hPa | 0 mm | - | 857 W/m² | - |
| 1777737520 | 13.89° C | 99% | 1020.1 hPa | 0 mm | - | 895 W/m² | - |
| 1777737218 | 13.89° C | 99% | 1019.7 hPa | 0 mm | - | 924 W/m² | - |
| 1777736913 | 13.89° C | 99% | 1019.7 hPa | 0 mm | - | 927 W/m² | - |
| 1777736305 | 13.33° C | 99% | 1019.7 hPa | 0 mm | - | 952 W/m² | - |
| 1777736002 | 13.33° C | 99% | 1019.6 hPa | 0 mm | - | 945 W/m² | - |
| 1777735699 | 13.89° C | 99% | 1019.5 hPa | 0 mm | - | 924 W/m² | - |
| 1777735397 | 13.89° C | 99% | 1019.4 hPa | 0 mm | - | 848 W/m² | - |
| 1777735094 | 14.44° C | 99% | 1019.6 hPa | 0 mm | - | 795 W/m² | - |
| 1777734791 | 12.78° C | 99% | 1019.4 hPa | 0 mm | - | 781 W/m² | - |
| 1777734489 | 12.78° C | 99% | 1019.7 hPa | 0 mm | - | 735 W/m² | - |
| 1777734185 | 13.33° C | 98% | 1019.5 hPa | 0 mm | - | 706 W/m² | - |
| 1777733881 | 13.33° C | 97% | 1019.3 hPa | 0 mm | - | 711 W/m² | - |
* Rain latest hour (hover to see other rain measurements)
** Current wind speed in m/s (hover to see current wind gust speed)